Terminal Aerodrome Forecast
Issued by NWS Mt. Holly, NJ

Home | Current Version | Previous Version | Text Only | Print | Product List | Glossary On
Versions: 1 2 3 4 5 6 7 8 9 10 11 12 13 14 15 16 17 18 19 20 21 22 23 24 25 26 27 28 29 30
000
FTUS41 KPHI 252323
TAFTTN
TAF
KTTN 252323Z 2600/2624 VRB02KT 6SM BR OVC005
      TEMPO 2600/2604 3SM BR SCT006 OVC015
     FM260400 VRB02KT 2SM BR OVC025
     FM260800 30005KT 2SM BR SCT025 BKN100
     FM260900 31005KT P6SM BKN150
     FM261700 30009KT P6SM BKN200
     FM262300 29006KT P6SM SKC=

USA.gov is the U.S. government's official web portal to all federal, state and local government web resources and services.